createdAt,value
2019-01-03T00:01:52.234Z,5.73
2019-01-03T00:04:50.787Z,6.30
2019-01-03T00:07:32.727Z,4.93
2019-01-03T00:10:17.833Z,3.60
2019-01-03T00:13:09.386Z,11.03
2019-01-03T00:16:08.357Z,5.90
2019-01-03T00:18:57.622Z,4.63
2019-01-03T00:21:50.225Z,6.33
2019-01-03T00:24:38.243Z,8.07
2019-01-03T00:27:20.069Z,8.67
2019-01-03T00:30:05.240Z,7.63
2019-01-03T00:32:50.514Z,5.30
2019-01-03T00:35:36.251Z,7.50
2019-01-03T00:38:31.611Z,2.97
2019-01-03T00:41:23.442Z,4.67
2019-01-03T00:44:10.252Z,6.13
2019-01-03T00:46:50.490Z,6.03
2019-01-03T00:49:43.045Z,8.60
2019-01-03T00:52:24.000Z,7.17
2019-01-03T00:55:22.741Z,9.53
2019-01-03T00:58:04.074Z,3.70
2019-01-03T01:00:41.843Z,4.50
2019-01-03T01:03:27.101Z,4.70
2019-01-03T01:06:07.900Z,9.40
2019-01-03T01:08:57.696Z,3.80
2019-01-03T01:11:44.475Z,7.53
2019-01-03T01:14:26.807Z,8.13
2019-01-03T01:17:13.598Z,5.40
2019-01-03T01:19:59.377Z,23.37
2019-01-03T01:22:57.787Z,4.50
2019-01-03T01:25:42.964Z,7.43
2019-01-03T01:28:35.397Z,4.53
2019-01-03T01:31:16.093Z,6.87
2019-01-03T01:34:06.003Z,8.03
2019-01-03T01:36:58.912Z,2.70
2019-01-03T01:40:00.707Z,5.73
2019-01-03T01:42:45.848Z,5.23
2019-01-03T01:45:32.654Z,10.33
2019-01-03T01:48:17.958Z,4.90
2019-01-03T01:51:10.398Z,4.63
2019-01-03T01:53:55.517Z,5.57
2019-01-03T01:56:40.868Z,9.30
2019-01-03T01:59:36.651Z,6.67
2019-01-03T02:02:32.373Z,6.97
2019-01-03T02:05:25.000Z,10.73
2019-01-03T02:08:10.539Z,6.87
2019-01-03T02:10:57.896Z,4.83
2019-01-03T02:13:43.079Z,4.30
2019-01-03T02:16:40.852Z,4.80
2019-01-03T02:19:42.530Z,4.50
2019-01-03T02:22:41.210Z,7.70
2019-01-03T02:25:27.915Z,4.20
2019-01-03T02:28:14.700Z,6.47
2019-01-03T02:31:19.548Z,5.57
2019-01-03T02:34:06.352Z,4.20
2019-01-03T02:36:51.716Z,9.40
2019-01-03T02:39:50.096Z,5.70
2019-01-03T02:42:37.428Z,4.20
2019-01-03T02:45:33.090Z,6.27
2019-01-03T02:48:18.204Z,16.27
2019-01-03T02:51:04.871Z,7.00
2019-01-03T02:54:03.608Z,10.80
2019-01-03T02:56:49.204Z,4.50
2019-01-03T02:59:34.758Z,9.00
2019-01-03T03:02:19.601Z,6.23
2019-01-03T03:05:04.804Z,8.03
2019-01-03T03:07:51.702Z,12.00
2019-01-03T03:10:36.924Z,8.37
2019-01-03T03:13:26.743Z,4.47
2019-01-03T03:16:22.749Z,5.57
2019-01-03T03:19:18.671Z,17.10
2019-01-03T03:22:05.486Z,9.43
2019-01-03T03:24:41.373Z,8.67
2019-01-03T03:27:26.600Z,13.70
2019-01-03T03:30:16.151Z,4.43
2019-01-03T03:33:11.881Z,10.23
2019-01-03T03:35:48.913Z,7.30
2019-01-03T03:38:34.015Z,4.33
2019-01-03T03:41:26.615Z,6.37
2019-01-03T03:44:13.420Z,6.30
2019-01-03T03:47:00.167Z,4.03
2019-01-03T03:49:56.057Z,6.97
2019-01-03T03:52:36.369Z,7.43
2019-01-03T03:55:19.102Z,11.73
2019-01-03T03:58:08.712Z,11.20
2019-01-03T04:00:53.718Z,6.80
2019-01-03T04:03:40.479Z,5.87
2019-01-03T04:06:45.193Z,7.60
2019-01-03T04:09:41.149Z,5.93
2019-01-03T04:12:27.953Z,5.90
2019-01-03T04:15:14.748Z,8.37
2019-01-03T04:18:01.430Z,6.10
2019-01-03T04:20:51.054Z,7.30
2019-01-03T04:23:40.418Z,7.13
2019-01-03T04:26:36.071Z,13.80
2019-01-03T04:29:21.240Z,8.83
2019-01-03T04:32:08.281Z,8.70
2019-01-03T04:34:57.622Z,6.97
2019-01-03T04:37:59.456Z,4.77
2019-01-03T04:40:48.911Z,13.70
2019-01-03T04:43:38.447Z,17.53
2019-01-03T04:46:37.078Z,11.33
2019-01-03T04:49:23.537Z,5.60
2019-01-03T04:52:19.213Z,5.07
2019-01-03T04:55:05.968Z,6.33
2019-01-03T04:57:51.423Z,15.73
2019-01-03T05:00:36.585Z,6.43
2019-01-03T05:03:29.127Z,8.37
2019-01-03T05:06:21.649Z,6.57
2019-01-03T05:09:06.965Z,11.03
2019-01-03T05:11:49.466Z,4.77
2019-01-03T05:14:50.632Z,2.90
2019-01-03T05:17:55.079Z,7.37
2019-01-03T05:20:44.911Z,4.13
2019-01-03T05:23:30.322Z,6.03
2019-01-03T05:26:20.429Z,7.77
2019-01-03T05:29:16.374Z,6.17
2019-01-03T05:32:06.541Z,6.97
2019-01-03T05:34:57.853Z,10.47
2019-01-03T05:37:42.993Z,5.73
2019-01-03T05:40:28.114Z,7.30
2019-01-03T05:43:13.470Z,14.17
2019-01-03T05:45:58.743Z,8.23
2019-01-03T05:49:00.128Z,9.03
2019-01-03T05:51:45.320Z,6.83
2019-01-03T05:54:30.165Z,8.87
2019-01-03T05:57:12.396Z,12.43
2019-01-03T06:00:04.823Z,7.70
2019-01-03T06:03:00.633Z,9.43
2019-01-03T06:05:45.887Z,8.67
2019-01-03T06:08:31.093Z,8.40
2019-01-03T06:11:29.564Z,9.67
2019-01-03T06:14:19.394Z,14.37
2019-01-03T06:17:24.513Z,13.50
2019-01-03T06:20:10.144Z,6.60
2019-01-03T06:22:55.271Z,15.10
2019-01-03T06:25:40.458Z,16.07
2019-01-03T06:28:25.595Z,19.00
2019-01-03T06:31:21.143Z,12.70
2019-01-03T06:34:10.936Z,12.80
2019-01-03T06:36:56.143Z,19.83
2019-01-03T06:39:41.871Z,20.27
2019-01-03T06:42:27.250Z,16.13
2019-01-03T06:45:12.591Z,12.13
2019-01-03T06:47:57.621Z,16.43
2019-01-03T06:50:44.420Z,22.27
2019-01-03T06:53:32.950Z,19.93
2019-01-03T06:56:22.574Z,18.40
2019-01-03T06:59:07.917Z,22.03
2019-01-03T07:01:53.730Z,23.93
2019-01-03T07:04:39.256Z,22.97
2019-01-03T07:07:31.499Z,31.07
2019-01-03T07:10:16.929Z,24.43
2019-01-03T07:13:09.316Z,24.57
2019-01-03T07:16:05.283Z,23.00
2019-01-03T07:18:57.616Z,21.77
2019-01-03T07:21:39.388Z,24.20
2019-01-03T07:24:22.071Z,28.90
2019-01-03T07:27:23.814Z,32.17
2019-01-03T07:30:09.034Z,28.90
2019-01-03T07:32:54.235Z,34.10
2019-01-03T07:35:37.220Z,41.27
2019-01-03T07:38:32.535Z,29.60
2019-01-03T07:41:22.104Z,34.13
2019-01-03T07:44:07.084Z,33.77
2019-01-03T07:47:02.992Z,30.00
2019-01-03T07:50:04.617Z,28.70
2019-01-03T07:52:49.896Z,30.37
2019-01-03T07:55:37.988Z,38.30
2019-01-03T07:58:23.536Z,42.83
2019-01-03T08:01:06.985Z,37.60
2019-01-03T08:03:52.089Z,36.80
2019-01-03T08:06:37.497Z,48.47
2019-01-03T08:09:25.367Z,36.10
2019-01-03T08:12:30.449Z,35.13
2019-01-03T08:15:14.496Z,54.47
2019-01-03T08:18:02.644Z,33.53
2019-01-03T08:20:57.269Z,41.37
2019-01-03T08:23:52.836Z,40.53
2019-01-03T08:26:48.664Z,42.13
2019-01-03T08:29:32.227Z,39.37
2019-01-03T08:32:17.542Z,34.80
2019-01-03T08:35:07.119Z,33.67
2019-01-03T08:38:08.577Z,34.13
2019-01-03T08:40:55.343Z,55.90
2019-01-03T08:43:40.925Z,36.87
2019-01-03T08:46:27.816Z,34.10
2019-01-03T08:49:17.380Z,37.63
2019-01-03T08:52:02.584Z,42.83
2019-01-03T08:54:42.941Z,38.00
2019-01-03T08:57:41.877Z,38.23
2019-01-03T09:00:41.182Z,38.53
2019-01-03T09:03:26.441Z,49.17
2019-01-03T09:06:21.968Z,33.30
2019-01-03T09:09:03.109Z,32.83
2019-01-03T09:11:55.881Z,49.10
2019-01-03T09:14:45.722Z,44.63
2019-01-03T09:17:41.328Z,47.37
2019-01-03T09:20:46.138Z,49.03
2019-01-03T09:23:39.405Z,48.07
2019-01-03T09:26:24.918Z,43.53
2019-01-03T09:29:12.058Z,40.83
2019-01-03T09:31:58.823Z,43.60
2019-01-03T09:34:47.565Z,35.13
2019-01-03T09:37:42.359Z,38.53
2019-01-03T09:40:27.952Z,40.57
2019-01-03T09:43:13.140Z,35.93
2019-01-03T09:45:44.296Z,36.70
2019-01-03T09:48:09.335Z,36.90
2019-01-03T09:50:36.740Z,33.60
2019-01-03T09:53:03.935Z,33.03
2019-01-03T09:55:31.108Z,39.40
2019-01-03T09:57:58.291Z,32.90
2019-01-03T10:00:25.484Z,31.50
2019-01-03T10:02:52.586Z,34.70
2019-01-03T10:05:19.766Z,31.43
2019-01-03T10:07:47.029Z,27.83
2019-01-03T10:10:14.131Z,36.90
2019-01-03T10:12:41.333Z,36.40
2019-01-03T10:15:08.547Z,40.20
2019-01-03T10:17:35.748Z,30.87
2019-01-03T10:20:03.261Z,31.53
2019-01-03T10:22:30.476Z,34.70
2019-01-03T10:24:57.637Z,29.03
2019-01-03T10:27:24.841Z,31.23
2019-01-03T10:29:52.064Z,32.53
2019-01-03T10:32:19.223Z,32.00
2019-01-03T10:34:46.391Z,28.43
2019-01-03T10:37:13.971Z,32.47
2019-01-03T10:39:41.127Z,22.70
2019-01-03T10:42:08.288Z,30.50
2019-01-03T10:44:35.538Z,29.93
2019-01-03T10:47:02.683Z,29.30
2019-01-03T10:49:29.851Z,26.57
2019-01-03T10:51:57.060Z,26.30
2019-01-03T10:54:24.221Z,32.07
2019-01-03T10:56:51.392Z,23.87
2019-01-03T10:59:18.608Z,27.90
2019-01-03T11:01:45.702Z,23.63
2019-01-03T11:04:12.891Z,27.20
2019-01-03T11:06:40.105Z,27.80
2019-01-03T11:09:07.270Z,25.20
2019-01-03T11:11:34.460Z,26.50
2019-01-03T11:14:01.665Z,27.83
2019-01-03T11:16:28.842Z,25.30
2019-01-03T11:18:56.304Z,23.80
2019-01-03T11:21:23.524Z,30.87
2019-01-03T11:23:51.012Z,24.37
2019-01-03T11:26:18.199Z,25.80
2019-01-03T11:28:45.398Z,24.10
2019-01-03T11:31:12.581Z,26.33
2019-01-03T11:33:39.750Z,20.13
2019-01-03T11:36:06.941Z,21.80
2019-01-03T11:38:34.051Z,21.33
2019-01-03T11:41:01.243Z,23.47
2019-01-03T11:43:28.376Z,21.20
2019-01-03T11:45:55.547Z,24.17
2019-01-03T11:48:22.717Z,26.13
2019-01-03T11:50:50.105Z,23.40
2019-01-03T11:53:17.564Z,25.27
2019-01-03T11:55:44.644Z,27.67
2019-01-03T11:58:11.864Z,23.10
2019-01-03T12:00:39.033Z,23.53
2019-01-03T12:03:06.234Z,24.30
2019-01-03T12:05:33.341Z,25.03
2019-01-03T12:08:00.792Z,27.80
2019-01-03T12:10:28.031Z,31.73
2019-01-03T12:12:55.286Z,26.60
2019-01-03T12:15:22.450Z,25.43
2019-01-03T12:17:49.530Z,22.27
2019-01-03T12:20:16.846Z,29.30
2019-01-03T12:22:44.048Z,24.00
2019-01-03T12:25:11.108Z,25.00
2019-01-03T12:27:38.354Z,22.60
2019-01-03T12:30:07.394Z,25.57
2019-01-03T12:32:34.592Z,28.50
2019-01-03T12:35:01.840Z,24.23
2019-01-03T12:37:29.067Z,19.47
2019-01-03T12:39:56.222Z,24.43
2019-01-03T12:42:23.446Z,20.73
2019-01-03T12:44:50.604Z,23.53
2019-01-03T12:47:17.844Z,24.03
2019-01-03T12:49:45.330Z,18.60
2019-01-03T12:52:12.494Z,19.70
2019-01-03T12:54:39.661Z,24.80
2019-01-03T12:57:06.873Z,19.60
2019-01-03T12:59:34.067Z,23.40
2019-01-03T13:02:01.125Z,21.37
2019-01-03T13:04:28.356Z,19.50
2019-01-03T13:06:55.474Z,21.63
2019-01-03T13:09:22.631Z,16.73
2019-01-03T13:11:50.067Z,22.30
2019-01-03T13:14:17.218Z,19.20
2019-01-03T13:16:44.759Z,16.70
2019-01-03T13:19:11.957Z,17.10
2019-01-03T13:21:39.165Z,19.33
2019-01-03T13:24:06.334Z,15.47
2019-01-03T13:26:33.641Z,16.67
2019-01-03T13:29:01.088Z,23.83
2019-01-03T13:31:28.273Z,15.80
2019-01-03T13:33:55.445Z,15.93
2019-01-03T13:36:22.685Z,15.07
2019-01-03T13:38:49.878Z,18.13
2019-01-03T13:41:17.076Z,17.43
2019-01-03T13:43:44.159Z,18.00
2019-01-03T13:46:11.354Z,15.40
2019-01-03T13:48:38.781Z,15.03
2019-01-03T13:51:05.857Z,17.07
2019-01-03T13:53:33.040Z,17.40
2019-01-03T13:56:00.244Z,15.43
2019-01-03T13:58:27.422Z,18.00
2019-01-03T14:00:54.650Z,16.33
2019-01-03T14:03:21.827Z,12.87
2019-01-03T14:05:48.928Z,10.90
2019-01-03T14:08:16.130Z,11.30
2019-01-03T14:10:43.352Z,13.03
2019-01-03T14:13:10.802Z,15.30
2019-01-03T14:15:37.998Z,11.33
2019-01-03T14:18:05.462Z,11.33
2019-01-03T14:20:32.555Z,15.17
2019-01-03T14:22:59.779Z,19.17
2019-01-03T14:25:26.851Z,12.67
2019-01-03T14:27:54.317Z,12.87
2019-01-03T14:30:21.698Z,13.20
2019-01-03T14:32:48.813Z,10.97
2019-01-03T14:35:15.971Z,14.60
2019-01-03T14:37:43.508Z,13.73
2019-01-03T14:40:10.695Z,11.00
2019-01-03T14:42:37.926Z,12.03
2019-01-03T14:45:05.425Z,13.57
2019-01-03T14:47:32.631Z,11.40
2019-01-03T14:50:00.229Z,16.50
2019-01-03T14:52:27.392Z,9.80
2019-01-03T14:54:54.668Z,12.30
2019-01-03T14:57:21.868Z,9.50
2019-01-03T14:59:49.053Z,10.47
2019-01-03T15:02:16.298Z,10.13
2019-01-03T15:04:43.461Z,8.80
2019-01-03T15:07:10.563Z,9.47
2019-01-03T15:09:37.763Z,13.33
2019-01-03T15:12:04.981Z,9.57
2019-01-03T15:14:32.228Z,9.27
2019-01-03T15:16:59.599Z,8.97
2019-01-03T15:19:27.555Z,7.17
2019-01-03T15:21:54.987Z,7.83
2019-01-03T15:24:22.213Z,9.10
2019-01-03T15:26:49.366Z,5.47
2019-01-03T15:29:16.565Z,3.80
2019-01-03T15:31:43.780Z,10.00
2019-01-03T15:34:11.201Z,7.50
2019-01-03T15:36:38.379Z,7.20
2019-01-03T15:39:05.616Z,5.47
2019-01-03T15:41:32.778Z,6.37
2019-01-03T15:43:59.965Z,7.40
2019-01-03T15:46:27.160Z,10.93
2019-01-03T15:48:54.266Z,8.60
2019-01-03T15:51:21.767Z,5.83
2019-01-03T15:53:48.852Z,6.60
2019-01-03T15:56:16.043Z,8.90
2019-01-03T15:58:43.243Z,6.70
2019-01-03T16:01:10.457Z,5.87
2019-01-03T16:03:37.627Z,7.73
2019-01-03T16:06:04.703Z,9.30
2019-01-03T16:08:31.924Z,12.77
2019-01-03T16:10:59.516Z,9.30
2019-01-03T16:13:26.706Z,8.40
2019-01-03T16:15:53.891Z,12.57
2019-01-03T16:18:21.087Z,10.20
2019-01-03T16:20:48.483Z,11.03
2019-01-03T16:23:15.852Z,9.13
2019-01-03T16:25:43.263Z,10.57
2019-01-03T16:28:10.461Z,14.07
2019-01-03T16:30:37.547Z,13.10
2019-01-03T16:33:05.027Z,9.07
2019-01-03T16:35:32.395Z,10.93
2019-01-03T16:37:59.648Z,10.80
2019-01-03T16:40:26.818Z,12.10
2019-01-03T16:42:54.020Z,9.20
2019-01-03T16:45:21.215Z,11.60
2019-01-03T16:47:48.284Z,9.00
2019-01-03T16:50:16.265Z,10.20
2019-01-03T16:52:43.483Z,11.97
2019-01-03T16:55:10.644Z,10.27
2019-01-03T16:57:38.137Z,9.20
2019-01-03T17:00:06.401Z,10.10
2019-01-03T17:02:33.600Z,9.07
2019-01-03T17:05:00.756Z,13.93
2019-01-03T17:07:28.008Z,10.10
2019-01-03T17:09:55.167Z,10.97
2019-01-03T17:12:22.392Z,9.03
2019-01-03T17:14:49.617Z,16.27
2019-01-03T17:17:16.685Z,11.30
2019-01-03T17:19:44.191Z,12.70
2019-01-03T17:22:11.409Z,7.77
2019-01-03T17:24:38.605Z,14.33
2019-01-03T17:27:05.798Z,9.53
2019-01-03T17:29:33.103Z,10.40
2019-01-03T17:32:00.336Z,9.83
2019-01-03T17:34:27.566Z,10.20
2019-01-03T17:36:55.332Z,12.00
2019-01-03T17:39:22.856Z,15.00
2019-01-03T17:41:50.099Z,9.70
2019-01-03T17:44:17.337Z,9.87
2019-01-03T17:46:44.814Z,13.43
2019-01-03T17:49:12.033Z,12.70
2019-01-03T17:51:39.281Z,12.70
2019-01-03T17:54:06.372Z,11.43
2019-01-03T17:56:33.616Z,18.17
2019-01-03T17:59:00.802Z,20.50
2019-01-03T18:01:28.034Z,14.40
2019-01-03T18:03:55.261Z,22.10
2019-01-03T18:06:22.503Z,20.33
2019-01-03T18:08:49.693Z,15.13
2019-01-03T18:11:16.878Z,21.13
2019-01-03T18:13:44.149Z,22.40
2019-01-03T18:16:11.319Z,17.30
2019-01-03T18:18:38.641Z,16.77
2019-01-03T18:21:05.752Z,16.70
2019-01-03T18:23:32.985Z,17.20
2019-01-03T18:26:00.513Z,17.93
2019-01-03T18:28:27.749Z,16.57
2019-01-03T18:30:54.997Z,14.70
2019-01-03T18:33:22.435Z,19.17
2019-01-03T18:35:49.881Z,21.67
2019-01-03T18:38:17.301Z,16.27
2019-01-03T18:40:44.413Z,16.13
2019-01-03T18:43:11.686Z,17.70
2019-01-03T18:45:39.809Z,18.33
2019-01-03T18:48:07.230Z,15.93
2019-01-03T18:50:34.335Z,19.10
2019-01-03T18:53:01.542Z,13.90
2019-01-03T18:55:28.833Z,15.00
2019-01-03T18:57:56.101Z,12.30
2019-01-03T19:00:23.269Z,14.67
2019-01-03T19:02:50.432Z,17.17
2019-01-03T19:05:17.628Z,12.50
2019-01-03T19:07:45.151Z,14.97
2019-01-03T19:10:12.298Z,13.03
2019-01-03T19:12:39.546Z,14.90
2019-01-03T19:15:07.969Z,17.00
2019-01-03T19:17:35.316Z,17.80
2019-01-03T19:20:03.535Z,12.73
2019-01-03T19:22:30.692Z,16.93
2019-01-03T19:24:57.804Z,13.47
2019-01-03T19:27:24.984Z,19.03
2019-01-03T19:29:52.494Z,13.97
2019-01-03T19:32:19.995Z,12.97
2019-01-03T19:34:47.764Z,11.20
2019-01-03T19:37:14.920Z,11.93
2019-01-03T19:39:42.368Z,18.00
2019-01-03T19:42:09.868Z,11.83
2019-01-03T19:44:37.065Z,18.07
2019-01-03T19:47:04.232Z,15.77
2019-01-03T19:49:31.441Z,13.87
2019-01-03T19:51:58.622Z,11.70
2019-01-03T19:54:25.827Z,15.40
2019-01-03T19:56:53.348Z,17.13
2019-01-03T19:59:20.447Z,15.70
2019-01-03T20:01:47.618Z,16.60
2019-01-03T20:04:14.717Z,20.93
2019-01-03T20:06:41.895Z,20.27
2019-01-03T20:09:09.096Z,17.50
2019-01-03T20:11:36.305Z,20.30
2019-01-03T20:14:03.476Z,22.70
2019-01-03T20:16:30.671Z,19.00
2019-01-03T20:18:57.883Z,22.20
2019-01-03T20:21:25.329Z,22.27
2019-01-03T20:23:53.052Z,22.47
2019-01-03T20:26:20.289Z,21.10
2019-01-03T20:28:47.449Z,43.23
2019-01-03T20:31:14.616Z,20.63
2019-01-03T20:33:42.097Z,19.37
2019-01-03T20:36:09.277Z,21.63
2019-01-03T20:38:36.444Z,17.43
2019-01-03T20:41:03.584Z,14.20
2019-01-03T20:43:30.824Z,25.43
2019-01-03T20:45:57.878Z,18.53
2019-01-03T20:48:26.678Z,17.60
2019-01-03T20:50:54.073Z,18.07
2019-01-03T20:53:21.298Z,25.27
2019-01-03T20:55:48.500Z,17.17
2019-01-03T20:58:16.051Z,18.40
2019-01-03T21:00:43.254Z,18.83
2019-01-03T21:03:10.725Z,17.57
2019-01-03T21:05:37.793Z,20.20
2019-01-03T21:08:04.968Z,18.27
2019-01-03T21:10:32.204Z,20.27
2019-01-03T21:12:59.405Z,20.10
2019-01-03T21:15:26.924Z,24.07
2019-01-03T21:17:54.038Z,23.87
2019-01-03T21:20:21.342Z,21.77
2019-01-03T21:22:48.393Z,25.27
2019-01-03T21:25:15.715Z,26.43
2019-01-03T21:27:42.804Z,24.70
2019-01-03T21:30:12.710Z,31.50
2019-01-03T21:32:40.176Z,28.80
2019-01-03T21:35:07.372Z,28.97
2019-01-03T21:37:34.529Z,34.97
2019-01-03T21:40:01.747Z,35.73
2019-01-03T21:42:29.035Z,31.17
2019-01-03T21:44:56.238Z,29.17
2019-01-03T21:47:23.470Z,27.37
2019-01-03T21:49:50.627Z,31.77
2019-01-03T21:52:17.796Z,27.00
2019-01-03T21:54:45.063Z,31.57
2019-01-03T21:57:12.214Z,24.13
2019-01-03T21:59:39.395Z,26.03
2019-01-03T22:02:06.635Z,24.47
2019-01-03T22:04:33.696Z,29.80
2019-01-03T22:07:00.883Z,27.63
2019-01-03T22:09:28.017Z,25.73
2019-01-03T22:11:55.193Z,28.27
2019-01-03T22:14:22.391Z,33.30
2019-01-03T22:16:49.861Z,28.73
2019-01-03T22:19:17.053Z,36.60
2019-01-03T22:21:44.220Z,35.93
2019-01-03T22:24:11.450Z,32.60
2019-01-03T22:26:38.710Z,35.00
2019-01-03T22:29:05.975Z,33.37
2019-01-03T22:31:33.655Z,33.80
2019-01-03T22:34:00.823Z,28.70
2019-01-03T22:36:27.906Z,27.93
2019-01-03T22:38:56.488Z,35.23
2019-01-03T22:41:23.665Z,25.17
2019-01-03T22:43:50.835Z,30.07
2019-01-03T22:46:17.931Z,25.37
2019-01-03T22:48:45.086Z,28.67
2019-01-03T22:51:12.248Z,34.13
2019-01-03T22:53:39.487Z,34.47
2019-01-03T22:56:06.623Z,27.00
2019-01-03T22:58:34.076Z,24.57
2019-01-03T23:01:01.407Z,25.53
2019-01-03T23:03:30.071Z,24.17
2019-01-03T23:05:57.163Z,25.03
2019-01-03T23:08:24.514Z,37.67
2019-01-03T23:10:51.659Z,29.80
2019-01-03T23:13:18.859Z,29.80
2019-01-03T23:15:46.042Z,36.23
2019-01-03T23:18:13.215Z,27.87
2019-01-03T23:20:40.544Z,25.47
2019-01-03T23:23:07.744Z,27.60
2019-01-03T23:25:34.922Z,22.73
2019-01-03T23:28:02.024Z,24.43
2019-01-03T23:30:29.598Z,26.77
2019-01-03T23:32:56.642Z,27.20
2019-01-03T23:35:23.794Z,31.77
2019-01-03T23:37:50.934Z,25.73
2019-01-03T23:40:18.079Z,22.97
2019-01-03T23:42:45.267Z,26.43
2019-01-03T23:45:20.369Z,28.63
2019-01-03T23:47:48.327Z,27.67
2019-01-03T23:50:17.743Z,35.50
2019-01-03T23:52:44.962Z,31.17
2019-01-03T23:55:12.097Z,30.17
2019-01-03T23:57:39.402Z,32.37
